createdAt,value
2019-04-21T00:00:31.831Z,18.37
2019-04-21T00:03:07.440Z,16.60
2019-04-21T00:05:55.275Z,16.80
2019-04-21T00:08:24.898Z,18.03
2019-04-21T00:10:51.052Z,19.43
2019-04-21T00:13:14.795Z,18.13
2019-04-21T00:15:32.911Z,15.23
2019-04-21T00:18:01.030Z,17.73
2019-04-21T00:20:37.736Z,16.10
2019-04-21T00:23:15.291Z,19.40
2019-04-21T00:25:38.795Z,16.30
2019-04-21T00:28:21.960Z,17.37
2019-04-21T00:30:44.443Z,16.00
2019-04-21T00:33:03.105Z,16.23
2019-04-21T00:35:25.874Z,18.00
2019-04-21T00:38:15.381Z,16.87
2019-04-21T00:40:41.474Z,18.90
2019-04-21T00:43:07.850Z,17.17
2019-04-21T00:45:33.742Z,19.23
2019-04-21T00:48:10.050Z,18.50
2019-04-21T00:50:50.975Z,15.57
2019-04-21T00:53:11.758Z,15.10
2019-04-21T00:55:52.017Z,17.57
2019-04-21T00:58:17.570Z,16.30
2019-04-21T01:00:49.592Z,16.77
2019-04-21T01:03:17.150Z,15.27
2019-04-21T01:05:48.324Z,19.30
2019-04-21T01:08:15.289Z,16.87
2019-04-21T01:10:38.349Z,18.57
2019-04-21T01:13:18.454Z,16.57
2019-04-21T01:15:49.135Z,18.80
2019-04-21T01:18:19.157Z,16.70
2019-04-21T01:20:21.598Z,16.83
2019-04-21T01:22:49.103Z,15.93
2019-04-21T01:25:27.421Z,18.13
2019-04-21T01:27:59.455Z,19.93
2019-04-21T01:30:38.015Z,15.83
2019-04-21T01:33:07.657Z,15.83
2019-04-21T01:35:34.332Z,17.60
2019-04-21T01:38:04.702Z,20.50
2019-04-21T01:40:38.329Z,15.70
2019-04-21T01:43:04.908Z,16.93
2019-04-21T01:45:31.696Z,16.83
2019-04-21T01:47:59.424Z,20.67
2019-04-21T01:50:30.042Z,16.67
2019-04-21T01:53:02.340Z,16.80
2019-04-21T01:55:49.887Z,15.33
2019-04-21T01:58:15.905Z,17.83
2019-04-21T02:01:00.112Z,16.07
2019-04-21T02:03:47.042Z,18.93
2019-04-21T02:06:06.343Z,17.87
2019-04-21T02:08:27.205Z,17.13
2019-04-21T02:11:00.655Z,16.37
2019-04-21T02:13:23.196Z,16.67
2019-04-21T02:16:03.785Z,17.53
2019-04-21T02:18:23.038Z,19.47
2019-04-21T02:20:45.893Z,17.93
2019-04-21T02:25:54.651Z,17.83
2019-04-21T02:28:28.036Z,17.33
2019-04-21T02:31:04.955Z,17.60
2019-04-21T02:36:20.701Z,19.33
2019-04-21T02:40:57.312Z,17.57
2019-04-21T02:43:24.879Z,18.80
2019-04-21T02:46:19.611Z,17.10
2019-04-21T02:48:43.421Z,16.80
2019-04-21T02:50:53.498Z,19.00
2019-04-21T02:53:35.304Z,16.67
2019-04-21T02:55:58.788Z,17.83
2019-04-21T02:58:34.726Z,17.77
2019-04-21T03:01:07.531Z,16.60
2019-04-21T03:03:42.684Z,16.07
2019-04-21T03:06:27.190Z,17.47
2019-04-21T03:09:05.919Z,16.90
2019-04-21T03:11:24.143Z,15.73
2019-04-21T03:14:01.078Z,17.60
2019-04-21T03:18:48.576Z,20.20
2019-04-21T03:21:22.296Z,16.40
2019-04-21T03:31:59.672Z,18.60
2019-04-21T03:41:15.907Z,18.30
2019-04-21T03:43:44.260Z,19.20
2019-04-21T03:46:05.902Z,20.83
2019-04-21T03:48:40.890Z,19.43
2019-04-21T03:51:15.866Z,21.37
2019-04-21T03:56:14.735Z,25.33
2019-04-21T03:58:48.546Z,21.93
2019-04-21T04:01:16.288Z,23.43
2019-04-21T04:06:45.072Z,25.10
2019-04-21T04:09:19.483Z,26.23
2019-04-21T04:11:45.765Z,24.33
2019-04-21T04:14:34.257Z,24.17
2019-04-21T04:16:52.198Z,24.17
2019-04-21T04:19:09.065Z,22.90
2019-04-21T04:24:13.335Z,22.57
2019-04-21T04:26:42.941Z,21.17
2019-04-21T04:29:12.400Z,22.67
2019-04-21T04:31:39.942Z,21.60
2019-04-21T04:44:57.576Z,21.47
2019-04-21T04:47:12.202Z,24.43
2019-04-21T04:49:43.610Z,21.90
2019-04-21T04:52:21.040Z,23.00
2019-04-21T04:57:07.904Z,23.67
2019-04-21T05:02:16.979Z,21.10
2019-04-21T05:04:40.333Z,22.60
2019-04-21T05:06:59.928Z,24.13
2019-04-21T05:14:25.215Z,21.07
2019-04-21T05:16:56.051Z,22.07
2019-04-21T05:19:27.795Z,21.77
2019-04-21T05:21:45.404Z,23.17
2019-04-21T05:24:13.728Z,23.60
2019-04-21T05:26:44.832Z,30.23
2019-04-21T05:29:05.234Z,26.63
2019-04-21T05:31:52.390Z,25.23
2019-04-21T05:34:22.021Z,22.17
2019-04-21T05:36:53.166Z,22.77
2019-04-21T05:39:21.624Z,21.43
2019-04-21T05:41:43.015Z,22.40
2019-04-21T05:44:29.190Z,23.23
2019-04-21T05:46:59.410Z,23.83
2019-04-21T05:49:33.765Z,21.57
2019-04-21T05:51:59.774Z,20.97
2019-04-21T05:57:08.648Z,22.53
2019-04-21T05:59:32.423Z,18.90
2019-04-21T06:02:15.192Z,32.47
2019-04-21T06:04:52.638Z,32.63
2019-04-21T06:07:15.443Z,23.10
2019-04-21T06:09:34.941Z,21.40
2019-04-21T06:12:04.741Z,24.80
2019-04-21T06:14:37.224Z,21.30
2019-04-21T06:17:05.522Z,19.73
2019-04-21T06:19:38.253Z,21.57
2019-04-21T06:21:57.419Z,23.13
2019-04-21T06:24:29.881Z,22.23
2019-04-21T06:29:30.118Z,19.97
2019-04-21T06:34:24.602Z,19.67
2019-04-21T06:37:14.954Z,20.27
2019-04-21T06:39:34.866Z,22.17
2019-04-21T06:41:58.867Z,19.93
2019-04-21T06:44:32.022Z,21.00
2019-04-21T06:46:59.255Z,41.53
2019-04-21T06:49:25.034Z,30.57
2019-04-21T06:51:57.629Z,19.17
2019-04-21T06:54:30.607Z,17.73
2019-04-21T06:56:51.675Z,18.03
2019-04-21T06:59:23.448Z,16.13
2019-04-21T07:01:56.655Z,16.17
2019-04-21T07:04:24.286Z,14.83
2019-04-21T07:06:57.507Z,16.00
2019-04-21T07:11:49.103Z,13.53
2019-04-21T07:16:52.589Z,18.37
2019-04-21T07:19:23.467Z,15.07
2019-04-21T07:21:45.773Z,15.30
2019-04-21T07:24:21.866Z,15.77
2019-04-21T07:26:51.226Z,15.67
2019-04-21T07:31:55.897Z,31.63
2019-04-21T07:34:16.018Z,27.60
2019-04-21T07:36:50.931Z,16.80
2019-04-21T07:39:12.149Z,14.83
2019-04-21T07:41:39.756Z,14.43
2019-04-21T07:44:04.351Z,16.67
2019-04-21T07:46:37.274Z,17.07
2019-04-21T07:49:12.499Z,14.73
2019-04-21T07:51:51.912Z,14.57
2019-04-21T07:54:23.816Z,15.23
2019-04-21T07:56:33.020Z,15.07
2019-04-21T07:59:09.590Z,13.97
2019-04-21T08:01:44.142Z,16.07
2019-04-21T08:04:33.259Z,13.03
2019-04-21T08:06:47.816Z,14.67
2019-04-21T08:09:12.259Z,13.40
2019-04-21T08:11:36.766Z,12.90
2019-04-21T08:14:13.924Z,15.83
2019-04-21T08:16:37.337Z,18.63
2019-04-21T08:19:08.093Z,14.30
2019-04-21T08:21:43.035Z,14.17
2019-04-21T08:24:11.702Z,11.80
2019-04-21T08:26:39.806Z,24.77
2019-04-21T08:29:12.717Z,17.30
2019-04-21T08:31:38.901Z,13.70
2019-04-21T08:34:12.618Z,10.83
2019-04-21T08:36:59.684Z,11.38
2019-04-21T08:38:59.792Z,12.95
2019-04-21T08:41:36.192Z,12.80
2019-04-21T08:43:57.469Z,11.97
2019-04-21T08:46:34.507Z,10.78
2019-04-21T08:49:03.832Z,11.60
2019-04-21T08:54:07.688Z,11.80
2019-04-21T08:56:34.302Z,10.10
2019-04-21T08:59:19.271Z,11.70
2019-04-21T09:02:01.273Z,11.05
2019-04-21T09:04:28.667Z,10.40
2019-04-21T09:07:07.393Z,11.10
2019-04-21T09:09:29.139Z,9.15
2019-04-21T09:12:01.316Z,10.53
2019-04-21T09:14:26.456Z,9.83
2019-04-21T09:16:53.718Z,9.60
2019-04-21T09:19:39.801Z,9.60
2019-04-21T09:21:54.585Z,11.10
2019-04-21T09:24:29.541Z,9.60
2019-04-21T09:26:55.985Z,9.23
2019-04-21T09:29:17.231Z,10.05
2019-04-21T09:31:38.016Z,11.50
2019-04-21T09:34:06.111Z,10.13
2019-04-21T09:36:38.924Z,10.18
2019-04-21T09:39:09.418Z,8.88
2019-04-21T09:41:34.388Z,8.60
2019-04-21T09:44:01.301Z,9.23
2019-04-21T09:46:29.895Z,8.90
2019-04-21T09:49:01.971Z,9.80
2019-04-21T09:51:27.808Z,12.03
2019-04-21T09:54:01.973Z,9.23
2019-04-21T09:56:36.113Z,9.38
2019-04-21T09:59:04.097Z,9.25
2019-04-21T10:01:32.262Z,9.63
2019-04-21T10:03:58.134Z,9.38
2019-04-21T10:06:23.685Z,9.90
2019-04-21T10:08:58.361Z,9.00
2019-04-21T10:11:21.066Z,10.85
2019-04-21T10:13:50.680Z,10.28
2019-04-21T10:16:23.809Z,9.48
2019-04-21T10:18:52.412Z,10.15
2019-04-21T10:21:19.855Z,8.98
2019-04-21T10:23:47.965Z,9.10
2019-04-21T10:26:16.506Z,9.58
2019-04-21T10:28:44.204Z,9.00
2019-04-21T10:31:11.762Z,9.38
2019-04-21T10:33:39.966Z,8.83
2019-04-21T10:36:08.861Z,8.55
2019-04-21T10:38:42.539Z,8.63
2019-04-21T10:41:05.545Z,9.10
2019-04-21T10:43:33.483Z,9.23
2019-04-21T10:46:01.296Z,9.85
2019-04-21T10:48:31.635Z,10.88
2019-04-21T10:50:59.140Z,11.78
2019-04-21T10:53:29.075Z,13.58
2019-04-21T10:56:11.526Z,8.35
2019-04-21T10:58:29.852Z,8.28
2019-04-21T11:01:00.004Z,8.23
2019-04-21T11:03:29.247Z,8.83
2019-04-21T11:06:01.354Z,8.75
2019-04-21T11:08:34.108Z,8.33
2019-04-21T11:11:45.029Z,8.73
2019-04-21T11:14:13.422Z,8.33
2019-04-21T11:16:43.352Z,12.13
2019-04-21T11:19:13.697Z,10.43
2019-04-21T11:21:42.914Z,8.23
2019-04-21T11:24:12.276Z,9.88
2019-04-21T11:26:42.193Z,12.35
2019-04-21T11:29:10.869Z,8.70
2019-04-21T11:31:40.950Z,8.93
2019-04-21T11:34:09.606Z,9.25
2019-04-21T11:36:37.988Z,9.13
2019-04-21T11:39:28.523Z,8.45
2019-04-21T11:41:47.748Z,8.78
2019-04-21T11:44:18.288Z,8.88
2019-04-21T11:46:47.028Z,9.65
2019-04-21T11:49:15.848Z,8.70
2019-04-21T11:51:44.999Z,9.25
2019-04-21T11:54:15.087Z,8.10
2019-04-21T11:56:43.488Z,9.43
2019-04-21T11:59:12.616Z,8.78
2019-04-21T12:01:41.508Z,8.33
2019-04-21T12:04:09.964Z,10.05
2019-04-21T12:06:43.604Z,15.40
2019-04-21T12:09:10.096Z,8.78
2019-04-21T12:11:39.193Z,9.25
2019-04-21T12:14:08.017Z,12.00
2019-04-21T12:16:37.503Z,9.90
2019-04-21T12:19:07.180Z,8.20
2019-04-21T12:21:46.644Z,8.80
2019-04-21T12:24:06.927Z,8.40
2019-04-21T12:26:35.922Z,8.05
2019-04-21T12:29:04.153Z,9.93
2019-04-21T12:31:35.910Z,8.23
2019-04-21T12:34:05.774Z,7.33
2019-04-21T12:36:35.736Z,7.83
2019-04-21T12:39:06.767Z,7.75
2019-04-21T12:41:34.274Z,6.97
2019-04-21T12:44:02.553Z,7.80
2019-04-21T12:46:30.205Z,8.30
2019-04-21T12:48:58.058Z,9.08
2019-04-21T12:51:25.973Z,7.62
2019-04-21T12:53:54.125Z,9.43
2019-04-21T12:56:21.389Z,10.08
2019-04-21T12:58:49.056Z,9.08
2019-04-21T13:01:16.771Z,7.42
2019-04-21T13:03:44.140Z,8.25
2019-04-21T13:06:11.780Z,8.30
2019-04-21T13:08:51.865Z,9.95
2019-04-21T13:11:09.588Z,8.83
2019-04-21T13:13:39.887Z,9.15
2019-04-21T13:16:07.405Z,10.13
2019-04-21T13:18:35.335Z,13.58
2019-04-21T13:21:05.217Z,8.80
2019-04-21T13:23:32.498Z,9.68
2019-04-21T13:26:02.505Z,9.90
2019-04-21T13:28:30.314Z,10.98
2019-04-21T13:30:58.224Z,8.45
2019-04-21T13:33:27.157Z,7.90
2019-04-21T13:35:55.175Z,10.68
2019-04-21T13:38:32.604Z,8.63
2019-04-21T13:41:10.736Z,8.73
2019-04-21T13:43:23.146Z,8.58
2019-04-21T13:45:51.803Z,8.30
2019-04-21T13:48:19.444Z,8.33
2019-04-21T13:50:47.151Z,8.78
2019-04-21T13:53:14.860Z,11.03
2019-04-21T13:55:42.627Z,9.73
2019-04-21T13:58:10.512Z,8.03
2019-04-21T14:00:38.112Z,9.15
2019-04-21T14:03:06.964Z,14.00
2019-04-21T14:05:36.020Z,9.70
2019-04-21T14:08:04.975Z,9.25
2019-04-21T14:10:33.516Z,8.80
2019-04-21T14:13:02.568Z,8.40
2019-04-21T14:15:30.362Z,8.90
2019-04-21T14:17:58.544Z,7.70
2019-04-21T14:20:27.041Z,7.73
2019-04-21T14:22:54.453Z,8.18
2019-04-21T14:25:21.812Z,7.85
2019-04-21T14:27:54.124Z,7.62
2019-04-21T14:30:23.655Z,8.23
2019-04-21T14:32:52.004Z,6.90
2019-04-21T14:35:20.944Z,7.85
2019-04-21T14:37:48.826Z,6.80
2019-04-21T14:40:23.556Z,7.22
2019-04-21T14:42:45.881Z,12.55
2019-04-21T14:45:16.844Z,12.58
2019-04-21T14:47:46.418Z,7.87
2019-04-21T14:50:18.664Z,6.62
2019-04-21T14:52:48.581Z,8.40
2019-04-21T14:55:20.841Z,6.67
2019-04-21T14:57:49.403Z,7.87
2019-04-21T15:00:19.115Z,7.90
2019-04-21T15:02:47.604Z,6.25
2019-04-21T15:05:15.718Z,7.20
2019-04-21T15:07:43.501Z,9.78
2019-04-21T15:10:18.435Z,7.05
2019-04-21T15:12:41.572Z,7.45
2019-04-21T15:15:09.835Z,6.08
2019-04-21T15:17:37.875Z,6.65
2019-04-21T15:20:11.291Z,6.55
2019-04-21T15:22:36.429Z,7.15
2019-04-21T15:25:05.803Z,6.80
2019-04-21T15:27:33.325Z,6.47
2019-04-21T15:30:00.699Z,11.38
2019-04-21T15:32:28.481Z,7.15
2019-04-21T15:34:56.520Z,8.00
2019-04-21T15:37:24.142Z,6.65
2019-04-21T15:39:53.075Z,8.55
2019-04-21T15:42:21.069Z,6.90
2019-04-21T15:44:48.716Z,7.12
2019-04-21T15:47:16.172Z,9.53
2019-04-21T15:50:02.793Z,5.70
2019-04-21T15:52:25.531Z,9.58
2019-04-21T15:54:56.912Z,6.12
2019-04-21T15:57:31.768Z,5.78
2019-04-21T16:00:16.358Z,6.55
2019-04-21T16:02:46.728Z,5.40
2019-04-21T16:05:15.037Z,7.33
2019-04-21T16:07:42.672Z,6.12
2019-04-21T16:10:14.474Z,5.03
2019-04-21T16:12:40.203Z,5.33
2019-04-21T16:15:08.520Z,7.40
2019-04-21T16:17:37.380Z,5.42
2019-04-21T16:20:06.172Z,6.67
2019-04-21T16:22:34.829Z,6.05
2019-04-21T16:25:05.064Z,8.25
2019-04-21T16:27:33.286Z,7.40
2019-04-21T16:30:01.960Z,8.08
2019-04-21T16:32:30.162Z,5.15
2019-04-21T16:35:03.823Z,5.17
2019-04-21T16:37:27.827Z,7.90
2019-04-21T16:39:55.736Z,4.87
2019-04-21T16:42:24.398Z,5.83
2019-04-21T16:44:52.825Z,5.37
2019-04-21T16:47:21.412Z,6.17
2019-04-21T16:49:49.851Z,6.15
2019-04-21T16:52:28.285Z,5.08
2019-04-21T16:54:58.338Z,6.90
2019-04-21T16:57:58.428Z,6.03
2019-04-21T17:00:29.013Z,6.80
2019-04-21T17:02:50.402Z,8.30
2019-04-21T17:05:18.337Z,6.92
2019-04-21T17:07:47.011Z,8.05
2019-04-21T17:10:14.844Z,6.55
2019-04-21T17:12:43.272Z,5.83
2019-04-21T17:15:28.265Z,5.60
2019-04-21T17:18:00.425Z,5.72
2019-04-21T17:20:19.212Z,5.83
2019-04-21T17:22:39.558Z,5.47
2019-04-21T17:25:08.578Z,6.30
2019-04-21T17:27:36.712Z,11.20
2019-04-21T17:30:08.629Z,12.75
2019-04-21T17:32:42.369Z,6.10
2019-04-21T17:35:06.060Z,6.22
2019-04-21T17:37:34.145Z,7.30
2019-04-21T17:40:05.128Z,5.90
2019-04-21T17:42:43.014Z,6.22
2019-04-21T17:45:01.310Z,7.60
2019-04-21T17:47:41.505Z,7.00
2019-04-21T17:50:13.652Z,5.47
2019-04-21T17:52:50.468Z,5.97
2019-04-21T17:55:25.391Z,5.72
2019-04-21T17:58:03.438Z,6.72
2019-04-21T18:00:57.727Z,5.75
2019-04-21T18:03:07.690Z,5.53
2019-04-21T18:05:39.327Z,7.22
2019-04-21T18:08:00.016Z,6.60
2019-04-21T18:10:32.817Z,7.03
2019-04-21T18:12:55.316Z,6.07
2019-04-21T18:15:34.090Z,7.10
2019-04-21T18:17:44.985Z,6.00
2019-04-21T18:20:15.299Z,8.97
2019-04-21T18:22:47.990Z,7.72
2019-04-21T18:25:31.723Z,7.27
2019-04-21T18:27:48.286Z,6.23
2019-04-21T18:30:33.952Z,10.17
2019-04-21T18:33:05.823Z,7.87
2019-04-21T18:35:36.528Z,6.70
2019-04-21T18:38:16.973Z,12.60
2019-04-21T18:40:41.506Z,11.80
2019-04-21T18:43:42.139Z,7.77
2019-04-21T18:46:11.500Z,8.43
2019-04-21T18:48:29.328Z,7.90
2019-04-21T18:50:58.909Z,8.80
2019-04-21T18:53:44.920Z,6.53
2019-04-21T18:56:05.542Z,7.57
2019-04-21T18:58:30.668Z,8.63
2019-04-21T19:01:07.627Z,7.73
2019-04-21T19:03:35.855Z,7.47
2019-04-21T19:06:05.192Z,7.10
2019-04-21T19:08:46.887Z,7.33
2019-04-21T19:11:13.514Z,15.97
2019-04-21T19:14:15.871Z,16.07
2019-04-21T19:16:33.170Z,11.10
2019-04-21T19:19:18.469Z,8.03
2019-04-21T19:21:24.199Z,9.23
2019-04-21T19:24:02.408Z,9.00
2019-04-21T19:26:29.339Z,8.67
2019-04-21T19:29:08.738Z,10.50
2019-04-21T19:31:32.116Z,9.03
2019-04-21T19:33:49.396Z,10.83
2019-04-21T19:36:05.544Z,9.37
2019-04-21T19:38:46.796Z,10.73
2019-04-21T19:41:20.971Z,10.03
2019-04-21T19:43:52.361Z,11.23
2019-04-21T19:46:19.328Z,11.20
2019-04-21T19:48:55.297Z,11.73
2019-04-21T19:51:15.043Z,10.43
2019-04-21T19:53:41.588Z,9.90
2019-04-21T19:55:58.322Z,11.57
2019-04-21T19:58:31.799Z,10.67
2019-04-21T20:00:57.474Z,11.00
2019-04-21T20:03:24.387Z,12.43
2019-04-21T20:06:00.502Z,11.07
2019-04-21T20:08:36.610Z,11.27
2019-04-21T20:11:10.262Z,11.67
2019-04-21T20:13:52.692Z,10.63
2019-04-21T20:16:06.766Z,10.57
2019-04-21T20:18:27.441Z,12.50
2019-04-21T20:20:48.105Z,14.20
2019-04-21T20:23:22.152Z,14.00
2019-04-21T20:25:49.829Z,17.10
2019-04-21T20:28:29.441Z,17.30
2019-04-21T20:31:03.607Z,16.67
2019-04-21T20:33:48.742Z,16.20
2019-04-21T20:36:01.392Z,17.33
2019-04-21T20:38:24.809Z,18.60
2019-04-21T20:40:52.355Z,19.23
2019-04-21T20:43:34.375Z,18.20
2019-04-21T20:46:03.388Z,19.67
2019-04-21T20:48:21.124Z,20.17
2019-04-21T20:51:03.505Z,19.83
2019-04-21T20:53:29.106Z,19.33
2019-04-21T20:55:52.841Z,19.80
2019-04-21T20:58:23.938Z,20.63
2019-04-21T21:01:09.372Z,21.03
2019-04-21T21:03:24.267Z,19.50
2019-04-21T21:05:45.106Z,21.83
2019-04-21T21:08:26.174Z,23.23
2019-04-21T21:10:44.030Z,20.47
2019-04-21T21:13:26.524Z,18.90
2019-04-21T21:15:52.451Z,22.37
2019-04-21T21:18:26.247Z,20.30
2019-04-21T21:20:52.731Z,20.53
2019-04-21T21:23:11.595Z,21.17
2019-04-21T21:26:04.850Z,20.70
2019-04-21T21:28:08.999Z,21.50
2019-04-21T21:30:39.918Z,22.77
2019-04-21T21:33:13.997Z,23.13
2019-04-21T21:35:39.675Z,22.00
2019-04-21T21:38:13.562Z,20.43
2019-04-21T21:40:38.176Z,21.07
2019-04-21T21:42:53.339Z,20.87
2019-04-21T21:45:25.138Z,20.73
2019-04-21T21:48:07.273Z,20.83
2019-04-21T21:50:25.141Z,21.10
2019-04-21T21:52:58.788Z,19.57
2019-04-21T21:55:19.297Z,20.07
2019-04-21T21:57:50.375Z,18.97
2019-04-21T22:00:19.146Z,24.13
2019-04-21T22:02:51.289Z,19.50
2019-04-21T22:05:23.879Z,20.53
2019-04-21T22:07:47.020Z,20.37
2019-04-21T22:10:15.888Z,20.33
2019-04-21T22:12:51.648Z,21.47
2019-04-21T22:15:18.880Z,24.10
2019-04-21T22:18:06.047Z,20.07
2019-04-21T22:20:33.417Z,19.33
2019-04-21T22:22:52.024Z,20.73
2019-04-21T22:25:19.813Z,21.93
2019-04-21T22:27:39.545Z,19.90
2019-04-21T22:30:11.393Z,21.27
2019-04-21T22:32:38.674Z,19.20
2019-04-21T22:35:21.753Z,19.57
2019-04-21T22:37:51.160Z,20.03
2019-04-21T22:40:19.287Z,22.67
2019-04-21T22:42:47.441Z,19.80
2019-04-21T22:45:07.363Z,20.83
2019-04-21T22:47:39.261Z,22.13
2019-04-21T22:50:06.449Z,18.60
2019-04-21T22:52:35.576Z,20.50
2019-04-21T22:55:10.963Z,18.67
2019-04-21T22:57:39.853Z,20.13
2019-04-21T23:00:07.115Z,21.13
2019-04-21T23:02:35.317Z,19.77
2019-04-21T23:05:02.577Z,17.93
2019-04-21T23:07:32.913Z,19.70
2019-04-21T23:10:01.032Z,19.50
2019-04-21T23:12:33.590Z,20.17
2019-04-21T23:15:05.726Z,20.77
2019-04-21T23:17:45.862Z,20.30
2019-04-21T23:20:21.781Z,19.40
2019-04-21T23:22:52.636Z,22.13
2019-04-21T23:25:15.453Z,19.13
2019-04-21T23:27:44.088Z,23.20
2019-04-21T23:30:20.183Z,19.37
2019-04-21T23:32:33.798Z,22.80
2019-04-21T23:34:55.647Z,21.03
2019-04-21T23:37:25.649Z,24.37
2019-04-21T23:39:59.766Z,23.00
2019-04-21T23:42:30.568Z,23.30
2019-04-21T23:44:55.180Z,24.17
2019-04-21T23:47:30.322Z,22.43
2019-04-21T23:49:58.374Z,21.13
2019-04-21T23:52:18.322Z,30.00
2019-04-21T23:54:47.380Z,23.83
2019-04-21T23:57:23.422Z,22.67
2019-04-21T23:59:48.701Z,20.73
